sensor_id;sensor_type;location;lat;lon;timestamp;pressure;altitude;pressure_sealevel;temperature;humidity
59654;BME280;66556;52.008;5.432;2023-03-26T00:00:58;100698.0;;;21.94;37.96
59654;BME280;66556;52.008;5.432;2023-03-26T00:04:11;100699.0;;;21.88;38.17
59654;BME280;66556;52.008;5.432;2023-03-26T00:05:48;100697.0;;;22.41;37.35
59654;BME280;66556;52.008;5.432;2023-03-26T00:07:25;100696.0;;;21.67;37.81
59654;BME280;66556;52.008;5.432;2023-03-26T00:10:41;100698.0;;;22.0;37.64
59654;BME280;66556;52.008;5.432;2023-03-26T00:12:18;100701.0;;;21.87;38.08
59654;BME280;66556;52.008;5.432;2023-03-26T00:13:54;100700.0;;;22.09;37.96
59654;BME280;66556;52.008;5.432;2023-03-26T00:15:33;100696.0;;;21.87;38.35
59654;BME280;66556;52.008;5.432;2023-03-26T00:18:46;100695.0;;;21.83;38.78
59654;BME280;66556;52.008;5.432;2023-03-26T00:20:23;100687.0;;;21.88;38.47
59654;BME280;66556;52.008;5.432;2023-03-26T00:21:59;100686.0;;;21.86;39.06
59654;BME280;66556;52.008;5.432;2023-03-26T00:25:12;100690.0;;;22.08;38.53
59654;BME280;66556;52.008;5.432;2023-03-26T00:26:49;100682.0;;;22.02;38.74
59654;BME280;66556;52.008;5.432;2023-03-26T00:28:25;100681.0;;;22.17;38.85
59654;BME280;66556;52.008;5.432;2023-03-26T00:31:39;100676.0;;;21.98;39.01
59654;BME280;66556;52.008;5.432;2023-03-26T00:33:16;100678.0;;;21.76;39.85
59654;BME280;66556;52.008;5.432;2023-03-26T00:34:53;100672.0;;;21.77;39.74
59654;BME280;66556;52.008;5.432;2023-03-26T00:36:30;100671.0;;;21.76;40.32
59654;BME280;66556;52.008;5.432;2023-03-26T00:39:43;100665.0;;;22.12;39.42
59654;BME280;66556;52.008;5.432;2023-03-26T00:41:20;100664.0;;;22.15;39.29
59654;BME280;66556;52.008;5.432;2023-03-26T00:42:58;100658.0;;;22.07;39.74
59654;BME280;66556;52.008;5.432;2023-03-26T00:46:11;100662.0;;;22.16;39.18
59654;BME280;66556;52.008;5.432;2023-03-26T00:47:48;100658.0;;;21.64;40.14
59654;BME280;66556;52.008;5.432;2023-03-26T00:49:24;100655.0;;;21.99;39.71
59654;BME280;66556;52.008;5.432;2023-03-26T00:52:36;100651.0;;;22.43;38.96
59654;BME280;66556;52.008;5.432;2023-03-26T00:54:12;100651.0;;;22.13;39.75
59654;BME280;66556;52.008;5.432;2023-03-26T00:55:49;100653.0;;;22.17;39.47
59654;BME280;66556;52.008;5.432;2023-03-26T00:57:25;100653.0;;;22.11;39.5
59654;BME280;66556;52.008;5.432;2023-03-26T01:00:43;100645.0;;;22.25;39.39
59654;BME280;66556;52.008;5.432;2023-03-26T01:02:22;100645.0;;;22.6;38.57
59654;BME280;66556;52.008;5.432;2023-03-26T01:04:20;100645.0;;;22.07;40.03
59654;BME280;66556;52.008;5.432;2023-03-26T01:06:00;100645.0;;;22.11;39.86
59654;BME280;66556;52.008;5.432;2023-03-26T01:09:16;100639.0;;;21.72;41.24
59654;BME280;66556;52.008;5.432;2023-03-26T01:10:55;100632.0;;;21.29;42.29
59654;BME280;66556;52.008;5.432;2023-03-26T01:12:33;100631.0;;;21.75;40.96
59654;BME280;66556;52.008;5.432;2023-03-26T01:14:11;100628.0;;;22.11;40.39
59654;BME280;66556;52.008;5.432;2023-03-26T01:17:27;100622.0;;;21.65;41.31
59654;BME280;66556;52.008;5.432;2023-03-26T01:19:08;100620.0;;;21.57;41.47
59654;BME280;66556;52.008;5.432;2023-03-26T01:20:48;100618.0;;;22.02;40.72
59654;BME280;66556;52.008;5.432;2023-03-26T01:24:04;100618.0;;;22.15;40.1
59654;BME280;66556;52.008;5.432;2023-03-26T01:25:44;100611.0;;;22.05;40.14
59654;BME280;66556;52.008;5.432;2023-03-26T01:27:30;100603.0;;;21.98;39.96
59654;BME280;66556;52.008;5.432;2023-03-26T01:29:18;100602.0;;;22.42;39.1
59654;BME280;66556;52.008;5.432;2023-03-26T01:30:58;100596.0;;;21.6;40.92
59654;BME280;66556;52.008;5.432;2023-03-26T01:34:41;100591.0;;;22.0;40.14
59654;BME280;66556;52.008;5.432;2023-03-26T01:36:26;100591.0;;;21.83;40.82
59654;BME280;66556;52.008;5.432;2023-03-26T01:38:15;100588.0;;;22.16;39.49
59654;BME280;66556;52.008;5.432;2023-03-26T01:40:01;100589.0;;;22.27;39.71
59654;BME280;66556;52.008;5.432;2023-03-26T01:41:44;100590.0;;;22.16;40.03
59654;BME280;66556;52.008;5.432;2023-03-26T01:45:10;100587.0;;;22.01;39.92
59654;BME280;66556;52.008;5.432;2023-03-26T01:46:51;100583.0;;;21.7;41.09
59654;BME280;66556;52.008;5.432;2023-03-26T01:48:30;100585.0;;;21.47;41.68
59654;BME280;66556;52.008;5.432;2023-03-26T01:50:09;100577.0;;;21.75;41.36
59654;BME280;66556;52.008;5.432;2023-03-26T01:51:46;100573.0;;;21.75;41.05
59654;BME280;66556;52.008;5.432;2023-03-26T01:55:00;100570.0;;;21.49;42.11
59654;BME280;66556;52.008;5.432;2023-03-26T01:56:43;100565.0;;;21.95;40.99
59654;BME280;66556;52.008;5.432;2023-03-26T01:58:29;100562.0;;;21.13;42.6
59654;BME280;66556;52.008;5.432;2023-03-26T02:00:20;100561.0;;;21.73;41.37
59654;BME280;66556;52.008;5.432;2023-03-26T02:03:49;100559.0;;;21.95;41.03
59654;BME280;66556;52.008;5.432;2023-03-26T02:05:31;100555.0;;;21.88;41.21
59654;BME280;66556;52.008;5.432;2023-03-26T02:07:13;100555.0;;;22.33;40.35
59654;BME280;66556;52.008;5.432;2023-03-26T02:08:57;100547.0;;;21.64;41.8
59654;BME280;66556;52.008;5.432;2023-03-26T02:10:39;100549.0;;;21.72;41.93
59654;BME280;66556;52.008;5.432;2023-03-26T02:13:57;100543.0;;;22.13;40.4
59654;BME280;66556;52.008;5.432;2023-03-26T02:15:34;100539.0;;;21.71;41.56
59654;BME280;66556;52.008;5.432;2023-03-26T02:17:10;100537.0;;;22.28;40.06
59654;BME280;66556;52.008;5.432;2023-03-26T02:20:24;100536.0;;;21.84;40.53
59654;BME280;66556;52.008;5.432;2023-03-26T02:22:02;100535.0;;;22.25;39.69
59654;BME280;66556;52.008;5.432;2023-03-26T02:23:39;100532.0;;;22.0;40.62
59654;BME280;66556;52.008;5.432;2023-03-26T02:25:19;100530.0;;;21.74;40.75
59654;BME280;66556;52.008;5.432;2023-03-26T02:28:33;100526.0;;;21.58;40.85
59654;BME280;66556;52.008;5.432;2023-03-26T02:30:14;100527.0;;;21.67;40.67
59654;BME280;66556;52.008;5.432;2023-03-26T02:31:50;100526.0;;;21.65;41.26
59654;BME280;66556;52.008;5.432;2023-03-26T02:35:04;100527.0;;;21.6;40.6
59654;BME280;66556;52.008;5.432;2023-03-26T02:36:40;100526.0;;;21.15;42.07
59654;BME280;66556;52.008;5.432;2023-03-26T02:38:18;100527.0;;;21.14;41.86
59654;BME280;66556;52.008;5.432;2023-03-26T02:39:54;100521.0;;;21.44;41.48
59654;BME280;66556;52.008;5.432;2023-03-26T02:43:06;100519.0;;;21.44;41.34
59654;BME280;66556;52.008;5.432;2023-03-26T02:44:42;100515.0;;;21.3;41.66
59654;BME280;66556;52.008;5.432;2023-03-26T02:46:18;100518.0;;;21.2;41.86
59654;BME280;66556;52.008;5.432;2023-03-26T02:49:30;100514.0;;;21.03;42.37
59654;BME280;66556;52.008;5.432;2023-03-26T02:51:07;100507.0;;;21.42;41.95
59654;BME280;66556;52.008;5.432;2023-03-26T02:52:44;100512.0;;;21.02;42.16
59654;BME280;66556;52.008;5.432;2023-03-26T02:55:59;100507.0;;;21.13;42.4
59654;BME280;66556;52.008;5.432;2023-03-26T02:57:35;100508.0;;;21.28;42.04
59654;BME280;66556;52.008;5.432;2023-03-26T02:59:11;100508.0;;;20.82;42.74
59654;BME280;66556;52.008;5.432;2023-03-26T03:00:48;100509.0;;;20.98;43.11
59654;BME280;66556;52.008;5.432;2023-03-26T03:04:01;100506.0;;;21.33;42.16
59654;BME280;66556;52.008;5.432;2023-03-26T03:05:37;100505.0;;;21.6;41.67
59654;BME280;66556;52.008;5.432;2023-03-26T03:07:14;100500.0;;;21.69;41.28
59654;BME280;66556;52.008;5.432;2023-03-26T03:10:27;100501.0;;;21.74;40.96
59654;BME280;66556;52.008;5.432;2023-03-26T03:12:05;100493.0;;;22.0;40.31
59654;BME280;66556;52.008;5.432;2023-03-26T03:13:43;100490.0;;;21.51;41.18
59654;BME280;66556;52.008;5.432;2023-03-26T03:16:56;100491.0;;;21.36;41.52
59654;BME280;66556;52.008;5.432;2023-03-26T03:18:33;100493.0;;;21.21;41.7
59654;BME280;66556;52.008;5.432;2023-03-26T03:20:11;100490.0;;;21.42;41.64
59654;BME280;66556;52.008;5.432;2023-03-26T03:21:47;100487.0;;;21.28;41.46
59654;BME280;66556;52.008;5.432;2023-03-26T03:24:59;100486.0;;;21.12;41.64
59654;BME280;66556;52.008;5.432;2023-03-26T03:26:36;100485.0;;;21.53;41.01
59654;BME280;66556;52.008;5.432;2023-03-26T03:28:13;100481.0;;;21.57;40.68
59654;BME280;66556;52.008;5.432;2023-03-26T03:31:25;100480.0;;;21.91;40.33
59654;BME280;66556;52.008;5.432;2023-03-26T03:33:02;100480.0;;;21.27;41.23
59654;BME280;66556;52.008;5.432;2023-03-26T03:34:39;100478.0;;;20.77;42.35
59654;BME280;66556;52.008;5.432;2023-03-26T03:37:55;100480.0;;;21.54;40.99
59654;BME280;66556;52.008;5.432;2023-03-26T03:39:31;100480.0;;;21.48;41.05
59654;BME280;66556;52.008;5.432;2023-03-26T03:41:07;100480.0;;;21.38;41.25
59654;BME280;66556;52.008;5.432;2023-03-26T03:42:44;100478.0;;;21.33;41.45
59654;BME280;66556;52.008;5.432;2023-03-26T03:45:57;100475.0;;;21.62;40.78
59654;BME280;66556;52.008;5.432;2023-03-26T03:47:35;100471.0;;;21.89;39.86
59654;BME280;66556;52.008;5.432;2023-03-26T03:49:10;100470.0;;;22.12;39.6
59654;BME280;66556;52.008;5.432;2023-03-26T03:52:23;100469.0;;;21.79;40.21
59654;BME280;66556;52.008;5.432;2023-03-26T03:53:59;100463.0;;;22.17;39.79
59654;BME280;66556;52.008;5.432;2023-03-26T03:55:36;100456.0;;;21.92;40.36
59654;BME280;66556;52.008;5.432;2023-03-26T03:58:48;100458.0;;;22.1;39.57
59654;BME280;66556;52.008;5.432;2023-03-26T04:00:26;100458.0;;;22.15;39.54
59654;BME280;66556;52.008;5.432;2023-03-26T04:02:02;100455.0;;;22.2;39.21
59654;BME280;66556;52.008;5.432;2023-03-26T04:03:39;100455.0;;;22.22;39.56
59654;BME280;66556;52.008;5.432;2023-03-26T04:06:51;100451.0;;;22.18;39.21
59654;BME280;66556;52.008;5.432;2023-03-26T04:08:28;100448.0;;;22.58;38.79
59654;BME280;66556;52.008;5.432;2023-03-26T04:10:06;100449.0;;;22.43;38.85
59654;BME280;66556;52.008;5.432;2023-03-26T04:13:20;100449.0;;;22.87;37.53
59654;BME280;66556;52.008;5.432;2023-03-26T04:14:57;100444.0;;;22.07;39.1
59654;BME280;66556;52.008;5.432;2023-03-26T04:16:34;100444.0;;;22.72;38.12
59654;BME280;66556;52.008;5.432;2023-03-26T04:19:46;100441.0;;;22.27;38.97
59654;BME280;66556;52.008;5.432;2023-03-26T04:21:23;100438.0;;;22.05;39.32
59654;BME280;66556;52.008;5.432;2023-03-26T04:22:59;100435.0;;;22.43;38.64
59654;BME280;66556;52.008;5.432;2023-03-26T04:24:35;100431.0;;;22.16;39.14
59654;BME280;66556;52.008;5.432;2023-03-26T04:27:52;100424.0;;;22.2;39.24
59654;BME280;66556;52.008;5.432;2023-03-26T04:29:29;100419.0;;;22.24;39.39
59654;BME280;66556;52.008;5.432;2023-03-26T04:31:17;100412.0;;;22.48;38.78
59654;BME280;66556;52.008;5.432;2023-03-26T04:32:55;100407.0;;;22.56;38.31
59654;BME280;66556;52.008;5.432;2023-03-26T04:36:10;100406.0;;;22.37;38.75
59654;BME280;66556;52.008;5.432;2023-03-26T04:37:47;100405.0;;;22.55;38.53
59654;BME280;66556;52.008;5.432;2023-03-26T04:39:24;100403.0;;;22.77;38.11
59654;BME280;66556;52.008;5.432;2023-03-26T04:42:38;100398.0;;;22.57;38.28
59654;BME280;66556;52.008;5.432;2023-03-26T04:44:14;100396.0;;;22.7;38.24
59654;BME280;66556;52.008;5.432;2023-03-26T04:45:50;100394.0;;;22.85;37.67
59654;BME280;66556;52.008;5.432;2023-03-26T04:49:03;100389.0;;;23.04;37.42
59654;BME280;66556;52.008;5.432;2023-03-26T04:50:40;100384.0;;;23.09;37.32
59654;BME280;66556;52.008;5.432;2023-03-26T04:52:18;100380.0;;;23.08;36.76
59654;BME280;66556;52.008;5.432;2023-03-26T04:53:55;100381.0;;;23.08;36.97
59654;BME280;66556;52.008;5.432;2023-03-26T04:57:20;100376.0;;;22.95;36.93
59654;BME280;66556;52.008;5.432;2023-03-26T04:59:01;100376.0;;;23.08;36.81
59654;BME280;66556;52.008;5.432;2023-03-26T05:00:37;100378.0;;;22.77;37.53
59654;BME280;66556;52.008;5.432;2023-03-26T05:02:13;100371.0;;;22.67;37.56
59654;BME280;66556;52.008;5.432;2023-03-26T05:05:28;100366.0;;;22.61;38.06
59654;BME280;66556;52.008;5.432;2023-03-26T05:07:04;100362.0;;;22.66;37.81
59654;BME280;66556;52.008;5.432;2023-03-26T05:08:41;100363.0;;;22.66;37.46
59654;BME280;66556;52.008;5.432;2023-03-26T05:11:53;100363.0;;;22.2;38.53
59654;BME280;66556;52.008;5.432;2023-03-26T05:13:29;100365.0;;;22.46;37.85
59654;BME280;66556;52.008;5.432;2023-03-26T05:15:06;100362.0;;;22.33;38.46
59654;BME280;66556;52.008;5.432;2023-03-26T05:18:23;100362.0;;;22.12;38.58
59654;BME280;66556;52.008;5.432;2023-03-26T05:19:59;100355.0;;;22.11;38.69
59654;BME280;66556;52.008;5.432;2023-03-26T05:21:36;100350.0;;;21.99;38.89
59654;BME280;66556;52.008;5.432;2023-03-26T05:23:12;100353.0;;;21.81;39.57
59654;BME280;66556;52.008;5.432;2023-03-26T05:26:25;100345.0;;;22.08;38.53
59654;BME280;66556;52.008;5.432;2023-03-26T05:28:01;100340.0;;;21.93;39.08
59654;BME280;66556;52.008;5.432;2023-03-26T05:29:38;100338.0;;;21.96;38.51
59654;BME280;66556;52.008;5.432;2023-03-26T05:32:53;100334.0;;;21.83;38.82
59654;BME280;66556;52.008;5.432;2023-03-26T05:34:29;100330.0;;;21.55;39.56
59654;BME280;66556;52.008;5.432;2023-03-26T05:36:07;100331.0;;;21.6;39.49
59654;BME280;66556;52.008;5.432;2023-03-26T05:37:47;100330.0;;;21.73;38.93
59654;BME280;66556;52.008;5.432;2023-03-26T05:41:00;100327.0;;;21.83;39.03
59654;BME280;66556;52.008;5.432;2023-03-26T05:42:39;100327.0;;;21.62;39.21
59654;BME280;66556;52.008;5.432;2023-03-26T05:44:16;100326.0;;;22.0;38.74
59654;BME280;66556;52.008;5.432;2023-03-26T05:47:28;100323.0;;;22.24;37.86
59654;BME280;66556;52.008;5.432;2023-03-26T05:49:05;100315.0;;;21.69;39.19
59654;BME280;66556;52.008;5.432;2023-03-26T05:50:41;100312.0;;;21.57;39.49
59654;BME280;66556;52.008;5.432;2023-03-26T05:53:54;100309.0;;;21.9;38.71
59654;BME280;66556;52.008;5.432;2023-03-26T05:55:30;100306.0;;;22.0;38.67
59654;BME280;66556;52.008;5.432;2023-03-26T05:57:06;100305.0;;;21.62;39.46
59654;BME280;66556;52.008;5.432;2023-03-26T05:58:42;100303.0;;;21.56;39.82
59654;BME280;66556;52.008;5.432;2023-03-26T06:01:54;100302.0;;;22.01;38.56
59654;BME280;66556;52.008;5.432;2023-03-26T06:03:31;100300.0;;;22.36;38.18
59654;BME280;66556;52.008;5.432;2023-03-26T06:05:08;100296.0;;;22.38;37.78
59654;BME280;66556;52.008;5.432;2023-03-26T06:08:21;100295.0;;;22.45;37.83
59654;BME280;66556;52.008;5.432;2023-03-26T06:09:57;100292.0;;;22.44;37.92
59654;BME280;66556;52.008;5.432;2023-03-26T06:11:33;100289.0;;;22.29;38.06
59654;BME280;66556;52.008;5.432;2023-03-26T06:14:45;100290.0;;;22.43;37.81
59654;BME280;66556;52.008;5.432;2023-03-26T06:16:22;100284.0;;;22.2;38.32
59654;BME280;66556;52.008;5.432;2023-03-26T06:17:59;100280.0;;;22.22;38.5
59654;BME280;66556;52.008;5.432;2023-03-26T06:19:35;100280.0;;;22.34;38.18
59654;BME280;66556;52.008;5.432;2023-03-26T06:22:48;100271.0;;;22.51;37.9
59654;BME280;66556;52.008;5.432;2023-03-26T06:24:25;100271.0;;;22.14;38.31
59654;BME280;66556;52.008;5.432;2023-03-26T06:26:01;100266.0;;;21.77;39.04
59654;BME280;66556;52.008;5.432;2023-03-26T06:29:14;100261.0;;;22.31;38.37
59654;BME280;66556;52.008;5.432;2023-03-26T06:30:51;100263.0;;;21.83;39.26
59654;BME280;66556;52.008;5.432;2023-03-26T06:32:27;100262.0;;;21.83;39.21
59654;BME280;66556;52.008;5.432;2023-03-26T06:35:39;100261.0;;;21.76;39.46
59654;BME280;66556;52.008;5.432;2023-03-26T06:37:15;100262.0;;;22.02;38.81
59654;BME280;66556;52.008;5.432;2023-03-26T06:38:52;100259.0;;;22.3;38.17
59654;BME280;66556;52.008;5.432;2023-03-26T06:40:29;100262.0;;;22.2;38.6
59654;BME280;66556;52.008;5.432;2023-03-26T06:43:43;100266.0;;;21.83;39.29
59654;BME280;66556;52.008;5.432;2023-03-26T06:45:19;100264.0;;;21.76;39.67
59654;BME280;66556;52.008;5.432;2023-03-26T06:46:55;100265.0;;;21.93;38.83
59654;BME280;66556;52.008;5.432;2023-03-26T06:50:09;100263.0;;;22.11;39.18
59654;BME280;66556;52.008;5.432;2023-03-26T06:51:46;100268.0;;;21.9;39.64
59654;BME280;66556;52.008;5.432;2023-03-26T06:53:23;100264.0;;;22.12;39.35
59654;BME280;66556;52.008;5.432;2023-03-26T06:56:35;100261.0;;;21.95;39.5
59654;BME280;66556;52.008;5.432;2023-03-26T06:58:12;100262.0;;;21.95;39.47
59654;BME280;66556;52.008;5.432;2023-03-26T06:59:48;100263.0;;;22.17;38.93
59654;BME280;66556;52.008;5.432;2023-03-26T07:01:24;100264.0;;;21.81;39.42
59654;BME280;66556;52.008;5.432;2023-03-26T07:04:38;100263.0;;;22.06;38.96
59654;BME280;66556;52.008;5.432;2023-03-26T07:06:14;100263.0;;;21.82;39.65
59654;BME280;66556;52.008;5.432;2023-03-26T07:07:50;100259.0;;;21.33;40.18
59654;BME280;66556;52.008;5.432;2023-03-26T07:11:03;100260.0;;;21.99;39.44
59654;BME280;66556;52.008;5.432;2023-03-26T07:12:40;100261.0;;;21.94;39.17
59654;BME280;66556;52.008;5.432;2023-03-26T07:14:17;100262.0;;;21.54;39.57
59654;BME280;66556;52.008;5.432;2023-03-26T07:17:29;100259.0;;;21.27;40.35
59654;BME280;66556;52.008;5.432;2023-03-26T07:19:05;100261.0;;;21.77;39.78
59654;BME280;66556;52.008;5.432;2023-03-26T07:20:43;100261.0;;;21.75;39.65
59654;BME280;66556;52.008;5.432;2023-03-26T07:22:21;100259.0;;;20.79;41.25
59654;BME280;66556;52.008;5.432;2023-03-26T07:25:36;100255.0;;;21.63;39.51
59654;BME280;66556;52.008;5.432;2023-03-26T07:27:25;100252.0;;;21.54;40.15
59654;BME280;66556;52.008;5.432;2023-03-26T07:29:15;100255.0;;;22.09;38.67
59654;BME280;66556;52.008;5.432;2023-03-26T07:31:05;100255.0;;;21.88;39.46
59654;BME280;66556;52.008;5.432;2023-03-26T07:33:03;100250.0;;;21.55;39.61
59654;BME280;66556;52.008;5.432;2023-03-26T07:36:33;100247.0;;;21.23;40.9
59654;BME280;66556;52.008;5.432;2023-03-26T07:38:23;100247.0;;;21.4;40.33
59654;BME280;66556;52.008;5.432;2023-03-26T07:40:13;100244.0;;;21.86;39.49
59654;BME280;66556;52.008;5.432;2023-03-26T07:42:00;100246.0;;;21.55;39.76
59654;BME280;66556;52.008;5.432;2023-03-26T07:43:52;100244.0;;;21.66;39.71
59654;BME280;66556;52.008;5.432;2023-03-26T07:46:04;100244.0;;;21.65;40.31
59654;BME280;66556;52.008;5.432;2023-03-26T07:47:46;100244.0;;;21.73;39.56
59654;BME280;66556;52.008;5.432;2023-03-26T07:51:00;100241.0;;;22.07;38.74
59654;BME280;66556;52.008;5.432;2023-03-26T07:52:37;100236.0;;;21.33;40.56
59654;BME280;66556;52.008;5.432;2023-03-26T07:54:14;100235.0;;;22.12;39.03
59654;BME280;66556;52.008;5.432;2023-03-26T07:55:56;100237.0;;;21.29;40.37
59654;BME280;66556;52.008;5.432;2023-03-26T07:59:28;100234.0;;;21.65;39.58
59654;BME280;66556;52.008;5.432;2023-03-26T08:01:11;100233.0;;;21.23;40.4
59654;BME280;66556;52.008;5.432;2023-03-26T08:03:04;100230.0;;;21.66;39.78
59654;BME280;66556;52.008;5.432;2023-03-26T08:05:48;100226.0;;;22.15;38.92
59654;BME280;66556;52.008;5.432;2023-03-26T08:07:36;100226.0;;;22.26;38.92
59654;BME280;66556;52.008;5.432;2023-03-26T08:09:21;100230.0;;;21.85;39.69
59654;BME280;66556;52.008;5.432;2023-03-26T08:11:16;100225.0;;;21.67;40.08
59654;BME280;66556;52.008;5.432;2023-03-26T08:13:09;100225.0;;;22.05;39.51
59654;BME280;66556;52.008;5.432;2023-03-26T08:14:58;100223.0;;;22.24;39.18
59654;BME280;66556;52.008;5.432;2023-03-26T08:18:33;100225.0;;;22.39;38.58
59654;BME280;66556;52.008;5.432;2023-03-26T08:20:25;100227.0;;;22.35;38.93
59654;BME280;66556;52.008;5.432;2023-03-26T08:22:10;100230.0;;;22.28;38.81
59654;BME280;66556;52.008;5.432;2023-03-26T08:23:59;100225.0;;;22.26;39.29
59654;BME280;66556;52.008;5.432;2023-03-26T08:25:45;100223.0;;;22.67;38.76
59654;BME280;66556;52.008;5.432;2023-03-26T08:27:34;100230.0;;;22.46;39.36
59654;BME280;66556;52.008;5.432;2023-03-26T08:31:01;100230.0;;;22.47;39.11
59654;BME280;66556;52.008;5.432;2023-03-26T08:32:38;100234.0;;;22.51;39.31
59654;BME280;66556;52.008;5.432;2023-03-26T08:34:15;100227.0;;;22.52;39.74
59654;BME280;66556;52.008;5.432;2023-03-26T08:35:51;100233.0;;;22.36;39.96
59654;BME280;66556;52.008;5.432;2023-03-26T08:39:05;100235.0;;;21.51;41.07
59654;BME280;66556;52.008;5.432;2023-03-26T08:41:00;100228.0;;;22.44;39.54
59654;BME280;66556;52.008;5.432;2023-03-26T08:48:20;100233.0;;;22.18;40.44
59654;BME280;66556;52.008;5.432;2023-03-26T08:51:19;100230.0;;;22.4;39.32
59654;BME280;66556;52.008;5.432;2023-03-26T08:54:46;100227.0;;;22.76;38.6
59654;BME280;66556;52.008;5.432;2023-03-26T08:57:01;100227.0;;;22.81;38.85
59654;BME280;66556;52.008;5.432;2023-03-26T09:00:19;100226.0;;;22.8;39.32
59654;BME280;66556;52.008;5.432;2023-03-26T09:02:38;100227.0;;;22.62;39.28
59654;BME280;66556;52.008;5.432;2023-03-26T09:06:06;100235.0;;;21.96;40.14
59654;BME280;66556;52.008;5.432;2023-03-26T09:09:12;100231.0;;;22.17;40.46
59654;BME280;66556;52.008;5.432;2023-03-26T09:16:25;100233.0;;;21.73;41.13
59654;BME280;66556;52.008;5.432;2023-03-26T09:18:29;100228.0;;;22.11;40.67
59654;BME280;66556;52.008;5.432;2023-03-26T09:22:09;100233.0;;;22.09;40.78
59654;BME280;66556;52.008;5.432;2023-03-26T09:26:23;100226.0;;;22.45;40.17
59654;BME280;66556;52.008;5.432;2023-03-26T09:28:26;100224.0;;;22.6;39.94
59654;BME280;66556;52.008;5.432;2023-03-26T09:30:42;100225.0;;;22.2;40.86
59654;BME280;66556;52.008;5.432;2023-03-26T09:33:43;100224.0;;;21.97;40.33
59654;BME280;66556;52.008;5.432;2023-03-26T09:35:41;100220.0;;;22.21;40.07
59654;BME280;66556;52.008;5.432;2023-03-26T09:37:34;100220.0;;;22.17;40.86
59654;BME280;66556;52.008;5.432;2023-03-26T09:39:29;100230.0;;;21.83;40.85
59654;BME280;66556;52.008;5.432;2023-03-26T09:41:16;100230.0;;;22.05;40.76
59654;BME280;66556;52.008;5.432;2023-03-26T09:42:55;100230.0;;;22.37;40.24
59654;BME280;66556;52.008;5.432;2023-03-26T09:47:49;100232.0;;;22.27;40.96
59654;BME280;66556;52.008;5.432;2023-03-26T09:51:18;100232.0;;;22.05;41.03
59654;BME280;66556;52.008;5.432;2023-03-26T09:53:44;100236.0;;;22.05;40.28
59654;BME280;66556;52.008;5.432;2023-03-26T09:56:15;100234.0;;;22.26;40.03
59654;BME280;66556;52.008;5.432;2023-03-26T09:58:07;100235.0;;;22.24;40.44
59654;BME280;66556;52.008;5.432;2023-03-26T10:00:15;100236.0;;;22.42;40.31
59654;BME280;66556;52.008;5.432;2023-03-26T10:02:09;100235.0;;;22.25;40.65
59654;BME280;66556;52.008;5.432;2023-03-26T10:04:03;100236.0;;;22.69;39.96
59654;BME280;66556;52.008;5.432;2023-03-26T10:05:57;100239.0;;;22.84;39.5
59654;BME280;66556;52.008;5.432;2023-03-26T10:07:52;100244.0;;;22.57;40.29
59654;BME280;66556;52.008;5.432;2023-03-26T10:11:38;100240.0;;;22.72;40.07
59654;BME280;66556;52.008;5.432;2023-03-26T10:13:37;100245.0;;;22.88;39.11
59654;BME280;66556;52.008;5.432;2023-03-26T10:15:31;100251.0;;;22.71;39.71
59654;BME280;66556;52.008;5.432;2023-03-26T10:17:25;100248.0;;;22.58;39.97
59654;BME280;66556;52.008;5.432;2023-03-26T10:19:20;100244.0;;;22.55;40.5
59654;BME280;66556;52.008;5.432;2023-03-26T10:21:08;100247.0;;;22.3;40.86
59654;BME280;66556;52.008;5.432;2023-03-26T10:22:59;100245.0;;;22.22;41.2
59654;BME280;66556;52.008;5.432;2023-03-26T10:24:52;100247.0;;;22.29;41.7
59654;BME280;66556;52.008;5.432;2023-03-26T10:27:10;100245.0;;;22.36;41.71
59654;BME280;66556;52.008;5.432;2023-03-26T10:30:16;100252.0;;;22.37;41.52
59654;BME280;66556;52.008;5.432;2023-03-26T10:32:05;100255.0;;;22.77;40.75
59654;BME280;66556;52.008;5.432;2023-03-26T10:33:55;100259.0;;;22.88;40.28
59654;BME280;66556;52.008;5.432;2023-03-26T10:35:45;100260.0;;;22.8;40.83
59654;BME280;66556;52.008;5.432;2023-03-26T10:37:38;100262.0;;;22.61;41.33
59654;BME280;66556;52.008;5.432;2023-03-26T10:39:30;100262.0;;;22.28;41.58
59654;BME280;66556;52.008;5.432;2023-03-26T10:41:23;100259.0;;;21.97;42.17
59654;BME280;66556;52.008;5.432;2023-03-26T10:46:03;100263.0;;;22.46;41.37
59654;BME280;66556;52.008;5.432;2023-03-26T10:49:43;100263.0;;;21.83;41.97
59654;BME280;66556;52.008;5.432;2023-03-26T10:53:28;100269.0;;;22.08;41.49
59654;BME280;66556;52.008;5.432;2023-03-26T10:55:11;100266.0;;;22.43;41.18
59654;BME280;66556;52.008;5.432;2023-03-26T10:56:53;100268.0;;;22.44;41.08
59654;BME280;66556;52.008;5.432;2023-03-26T10:58:30;100273.0;;;21.86;41.97
59654;BME280;66556;52.008;5.432;2023-03-26T11:00:17;100273.0;;;22.11;42.11
59654;BME280;66556;52.008;5.432;2023-03-26T11:03:49;100275.0;;;22.42;40.56
59654;BME280;66556;52.008;5.432;2023-03-26T11:05:43;100272.0;;;22.13;41.66
59654;BME280;66556;52.008;5.432;2023-03-26T11:07:25;100271.0;;;21.66;42.05
59654;BME280;66556;52.008;5.432;2023-03-26T11:09:21;100280.0;;;21.87;41.81
59654;BME280;66556;52.008;5.432;2023-03-26T11:11:04;100277.0;;;22.17;41.42
59654;BME280;66556;52.008;5.432;2023-03-26T11:12:52;100278.0;;;21.59;41.88
59654;BME280;66556;52.008;5.432;2023-03-26T11:14:38;100281.0;;;21.63;41.65
59654;BME280;66556;52.008;5.432;2023-03-26T11:18:12;100284.0;;;21.6;40.99
59654;BME280;66556;52.008;5.432;2023-03-26T11:19:56;100284.0;;;22.15;40.32
59654;BME280;66556;52.008;5.432;2023-03-26T11:21:39;100287.0;;;22.06;39.83
59654;BME280;66556;52.008;5.432;2023-03-26T11:23:32;100286.0;;;21.63;40.21
59654;BME280;66556;52.008;5.432;2023-03-26T11:25:25;100287.0;;;21.56;40.83
59654;BME280;66556;52.008;5.432;2023-03-26T11:28:03;100291.0;;;21.78;40.29
59654;BME280;66556;52.008;5.432;2023-03-26T11:29:51;100293.0;;;22.02;39.85
59654;BME280;66556;52.008;5.432;2023-03-26T11:31:41;100298.0;;;21.87;40.49
59654;BME280;66556;52.008;5.432;2023-03-26T11:33:26;100296.0;;;21.76;41.21
59654;BME280;66556;52.008;5.432;2023-03-26T11:36:53;100298.0;;;21.74;40.64